Jackson, Missouri
Current Conditions -  °F | °C
As of 11:53 AM on Wednesday 28 Jan 2015 (Local Time) from KCGI Reporting Station
Clear Clear  
Wind Chill: 36°   Ceiling: Unl
Heat Index: 42°   Visibility: 10mi
Dew Point: 32°   Wind: 12mph
Humidity: 67%   Direction: 150°SSE
Pressure: 30.27"   Gusts: 18mph
Location:  37.38°N, 89.67°W
Report Text: KCGI 281753Z 15010G16KT 10SM CLR 06/00 A3027 RMK AO2 SLP251 I6000 T00560000 10056 21033 58013
Loading
Personal Weather Stations






























Interactive Weather Map New forecast layout! Learn more

10-Day Weather Forecast

Advertisements
Track Severe Weather on mobile